Lynnfield, MA (01940)

5:16 AM EST on January 18, 2017 (GMT -0500)
Lynnfield High school | | Change Station
Active Advisory: Small Craft Advisory Active Notice: Public Information Statement

Elev 110 ft 42.54 °N, 71.03 °W | Updated 15 seconds ago

Rain
Rain
34.9 °F
Feels Like 35 °F
N
0.0
Wind Variable Wind from East

Today
High -- | Low -- °F
--% Chance of Precip.
Yesterday
High -- | Low -- °F
Precip. -- in
Pressure 30.00 in
Visibility 8.0 miles
Clouds Overcast 700 ft
Windchill 35 °F
Dew Point 34 °F
Humidity 98%
Rainfall 0.30 in
Snow Depth Not available.
7:09 AM 4:40 PM
Waning Gibbous, 64% visible
METAR KBVY 180953Z AUTO 07007KT 8SM -RA OVC007 02/02 A3001 RMK AO2 CIG 006V010 SLP159 P0002 T00220017
Pressure 30.00 in
Visibility 8.0 miles
Clouds Overcast 700 ft
Windchill 35 °F
Dew Point 34 °F
Humidity 98%
Rainfall 0.30 in
Snow Depth Not available.
7:09 AM 4:40 PM
Waning Gibbous, 64% visible
METAR KBVY 180953Z AUTO 07007KT 8SM -RA OVC007 02/02 A3001 RMK AO2 CIG 006V010 SLP159 P0002 T00220017

Get Your Daily Forecast Email!

Thanks for signing up!

Be on the lookout for a verification email in your inbox.

You'll start receiving the daily forecast at 8 AM.

×

10-Day Weather Forecast

Almanac

Astronomy

Jan. 18, 2017 Rise Set
Actual Time
Civil Twilight
Nautical Twilight
Astronomical Twilight
Moon
Length of Visible Light
Length of Day
Tomorrow will be .
, % of the Moon is Illuminated

Today's Extremes

State Highs State Lows

Community

WunderPhotos

Upload Photos

1,962,540 photos uploaded!

WunderBlog® & News

Nearby

Air Quality

  Air Quality AQ Index Pollutant
Not available.

Snow Depth

Station Depth Elevation

Earthquake Activity

City Distance Mag. Time & Date
Minimum magnitude displayed is 2.5.

Coastal Water Temperatures

Place Temperature

Stations

Nearby Weather Stations

Station Location Temp. Windchill Dew Point Humidity Wind Precip. Elev Updated Type
                   

Watches & Warnings

Small Craft Advisory
Issued: 3:54 AM EST Jan. 18, 2017 – National Weather Service

... Small Craft Advisory until 7 PM EST this evening...

* winds and seas... east winds 15 to 20 kt with gusts up to 25 kt.
Seas 1 to 3 feet.

Precautionary/preparedness actions...

A Small Craft Advisory means that wind speeds of 25 to 33 knots
are expected to produce hazardous wave conditions to small craft.
Inexperienced mariners... especially those operating smaller
vessels should avoid navigating in these conditions.



For the latest updates... please visit our webpage at
www.Weather.Gov/Boston

You can follow US on facebook at
www.Facebook.Com/nwsboston